createdAt,value
2023-02-16T00:01:22.625Z,-1.73
2023-02-16T00:03:53.204Z,-1.74
2023-02-16T00:06:22.280Z,-1.75
2023-02-16T00:08:53.097Z,-1.77
2023-02-16T00:11:54.716Z,-1.80
2023-02-16T00:14:24.633Z,-1.87
2023-02-16T00:16:54.214Z,-1.91
2023-02-16T00:19:31.499Z,-1.97
2023-02-16T00:22:01.218Z,-2.01
2023-02-16T00:24:30.924Z,-2.05
2023-02-16T00:27:00.911Z,-2.09
2023-02-16T00:29:35.309Z,-2.16
2023-02-16T00:32:06.426Z,-2.23
2023-02-16T00:34:40.747Z,-2.27
2023-02-16T00:37:14.324Z,-2.29
2023-02-16T00:39:44.343Z,-2.33
2023-02-16T00:42:22.081Z,-2.35
2023-02-16T00:44:56.906Z,-2.42
2023-02-16T00:47:37.529Z,-2.49
2023-02-16T00:50:28.196Z,-2.57
2023-02-16T00:52:59.782Z,-2.67
2023-02-16T00:55:31.159Z,-2.73
2023-02-16T00:58:12.484Z,-2.79
2023-02-16T01:00:44.915Z,-2.83
2023-02-16T01:03:20.814Z,-2.87
2023-02-16T01:05:49.565Z,-2.91
2023-02-16T01:08:36.623Z,-2.92
2023-02-16T01:11:10.276Z,-2.94
2023-02-16T01:13:47.946Z,-2.99
2023-02-16T01:16:25.953Z,-3.03
2023-02-16T01:18:54.895Z,-3.05
2023-02-16T01:21:23.154Z,-3.04
2023-02-16T01:23:52.175Z,-3.02
2023-02-16T01:26:21.764Z,-3.03
2023-02-16T01:28:50.278Z,-3.06
2023-02-16T01:31:18.842Z,-3.11
2023-02-16T01:33:47.201Z,-3.14
2023-02-16T01:36:29.976Z,-3.16
2023-02-16T01:38:58.297Z,-3.18
2023-02-16T01:41:48.269Z,-3.20
2023-02-16T01:44:22.808Z,-3.22
2023-02-16T01:46:57.263Z,-3.26
2023-02-16T01:49:25.951Z,-3.29
2023-02-16T01:52:02.422Z,-3.35
2023-02-16T01:54:57.842Z,-3.42
2023-02-16T01:57:37.784Z,-3.48
2023-02-16T02:00:29.679Z,-3.53
2023-02-16T02:03:21.643Z,-3.59
2023-02-16T02:05:52.182Z,-3.62
2023-02-16T02:08:37.303Z,-3.65
2023-02-16T02:11:24.376Z,-3.67
2023-02-16T02:14:04.202Z,-3.68
2023-02-16T02:16:32.919Z,-3.66
2023-02-16T02:19:01.900Z,-3.69
2023-02-16T02:22:09.151Z,-3.74
2023-02-16T02:24:52.797Z,-3.80
2023-02-16T02:27:23.414Z,-3.86
2023-02-16T02:29:58.738Z,-3.89
2023-02-16T02:36:33.846Z,-3.96
2023-02-16T02:39:22.132Z,-3.98
2023-02-16T02:42:07.181Z,-4.01
2023-02-16T02:44:46.521Z,-4.01
2023-02-16T02:47:15.288Z,-4.03
2023-02-16T02:49:52.508Z,-4.04
2023-02-16T02:52:22.939Z,-4.07
2023-02-16T02:55:27.105Z,-4.08
2023-02-16T02:58:14.519Z,-4.11
2023-02-16T03:00:47.352Z,-4.15
2023-02-16T03:03:19.112Z,-4.15
2023-02-16T03:06:01.616Z,-4.17
2023-02-16T03:08:34.615Z,-4.16
2023-02-16T03:11:30.791Z,-4.15
2023-02-16T03:14:07.463Z,-4.15
2023-02-16T03:16:40.924Z,-4.17
2023-02-16T03:19:31.970Z,-4.19
2023-02-16T03:22:20.654Z,-4.23
2023-02-16T03:25:07.974Z,-4.26
2023-02-16T03:28:01.768Z,-4.31
2023-02-16T03:30:30.902Z,-4.35
2023-02-16T03:32:59.629Z,-4.39
2023-02-16T03:35:29.192Z,-4.41
2023-02-16T03:37:57.898Z,-4.43
2023-02-16T03:40:28.731Z,-4.46
2023-02-16T03:43:03.327Z,-4.49
2023-02-16T03:45:35.301Z,-4.52
2023-02-16T03:48:04.224Z,-4.53
2023-02-16T03:50:33.188Z,-4.53
2023-02-16T03:53:07.688Z,-4.57
2023-02-16T03:55:47.678Z,-4.60
2023-02-16T03:58:20.279Z,-4.62
2023-02-16T04:05:21.755Z,-4.60
2023-02-16T04:07:50.169Z,-4.62
2023-02-16T04:10:19.228Z,-4.63
2023-02-16T04:12:47.564Z,-4.63
2023-02-16T04:15:22.742Z,-4.60
2023-02-16T04:17:51.280Z,-4.59
2023-02-16T04:20:23.447Z,-4.56
2023-02-16T04:22:51.888Z,-4.53
2023-02-16T04:25:20.770Z,-4.57
2023-02-16T04:27:49.613Z,-4.59
2023-02-16T04:34:38.526Z,-4.51
2023-02-16T04:37:06.672Z,-4.52
2023-02-16T04:39:35.349Z,-4.53
2023-02-16T04:42:04.151Z,-4.53
2023-02-16T04:44:33.009Z,-4.52
2023-02-16T04:47:01.075Z,-4.52
2023-02-16T04:49:29.136Z,-4.53
2023-02-16T04:51:57.500Z,-4.52
2023-02-16T04:54:25.471Z,-4.50
2023-02-16T04:56:53.640Z,-4.48
2023-02-16T04:59:21.770Z,-4.49
2023-02-16T05:01:50.019Z,-4.53
2023-02-16T05:04:19.090Z,-4.55
2023-02-16T05:06:47.058Z,-4.55
2023-02-16T05:09:15.279Z,-4.56
2023-02-16T05:12:02.228Z,-4.58
2023-02-16T05:14:45.633Z,-4.63
2023-02-16T05:17:19.639Z,-4.65
2023-02-16T05:19:52.342Z,-4.66
2023-02-16T05:22:21.086Z,-4.67
2023-02-16T05:24:49.431Z,-4.65
2023-02-16T05:27:23.093Z,-4.64
2023-02-16T05:29:51.962Z,-4.62
2023-02-16T05:32:20.723Z,-4.63
2023-02-16T05:34:48.752Z,-4.63
2023-02-16T05:37:18.725Z,-4.67
2023-02-16T05:39:46.918Z,-4.71
2023-02-16T05:42:14.874Z,-4.74
2023-02-16T05:44:42.861Z,-4.73
2023-02-16T05:47:11.425Z,-4.69
2023-02-16T05:49:39.477Z,-4.62
2023-02-16T05:52:07.514Z,-4.43
2023-02-16T05:54:35.590Z,-4.21
2023-02-16T05:57:04.330Z,-4.00
2023-02-16T05:59:32.263Z,-3.80
2023-02-16T06:02:00.911Z,-3.63
2023-02-16T06:04:29.481Z,-3.41
2023-02-16T06:06:57.464Z,-3.22
2023-02-16T06:09:25.637Z,-3.08
2023-02-16T06:11:54.700Z,-2.90
2023-02-16T06:14:22.939Z,-2.74
2023-02-16T06:16:54.431Z,-2.63
2023-02-16T06:19:22.848Z,-2.55
2023-02-16T06:21:51.220Z,-2.48
2023-02-16T06:24:19.409Z,-2.41
2023-02-16T06:26:47.517Z,-2.35
2023-02-16T06:29:15.663Z,-2.27
2023-02-16T06:31:43.875Z,-2.18
2023-02-16T06:34:12.013Z,-2.08
2023-02-16T06:36:42.388Z,-1.97
2023-02-16T06:39:10.963Z,-1.83
2023-02-16T06:41:40.524Z,-1.73
2023-02-16T06:44:14.086Z,-1.64
2023-02-16T06:46:44.422Z,-1.54
2023-02-16T06:49:14.732Z,-1.48
2023-02-16T06:51:43.036Z,-1.42
2023-02-16T06:54:11.660Z,-1.33
2023-02-16T06:56:40.108Z,-1.23
2023-02-16T06:59:08.174Z,-1.12
2023-02-16T07:01:36.192Z,-1.01
2023-02-16T07:04:04.304Z,-0.89
2023-02-16T07:06:32.605Z,-0.78
2023-02-16T07:09:01.033Z,-0.62
2023-02-16T07:11:29.318Z,-0.44
2023-02-16T07:13:57.830Z,-0.27
2023-02-16T07:16:26.030Z,-0.09
2023-02-16T07:18:54.031Z,0.07
2023-02-16T07:21:22.082Z,0.22
2023-02-16T07:23:50.065Z,0.35
2023-02-16T07:26:19.323Z,0.50
2023-02-16T07:28:47.538Z,0.64
2023-02-16T07:31:17.526Z,0.82
2023-02-16T07:33:45.635Z,0.96
2023-02-16T07:36:14.332Z,1.13
2023-02-16T07:38:42.370Z,1.24
2023-02-16T07:41:11.900Z,1.37
2023-02-16T07:43:42.826Z,1.45
2023-02-16T07:46:11.023Z,1.46
2023-02-16T07:48:39.153Z,1.55
2023-02-16T07:51:07.868Z,1.72
2023-02-16T07:53:35.983Z,1.89
2023-02-16T07:56:04.275Z,2.02
2023-02-16T07:58:32.383Z,2.13
2023-02-16T08:01:08.187Z,2.24
2023-02-16T08:03:36.358Z,2.41
2023-02-16T08:06:05.040Z,2.61
2023-02-16T08:08:33.642Z,2.82
2023-02-16T08:11:11.802Z,3.07
2023-02-16T08:13:40.592Z,3.40
2023-02-16T08:16:10.804Z,3.57
2023-02-16T08:18:40.715Z,3.73
2023-02-16T08:21:14.510Z,3.91
2023-02-16T08:23:47.580Z,4.06
2023-02-16T08:26:19.606Z,4.20
2023-02-16T08:28:50.223Z,4.32
2023-02-16T08:31:25.101Z,4.43
2023-02-16T08:33:54.292Z,4.41
2023-02-16T08:36:29.667Z,4.29
2023-02-16T08:38:58.100Z,4.22
2023-02-16T08:41:30.869Z,4.18
2023-02-16T08:44:01.329Z,4.14
2023-02-16T08:46:32.518Z,4.21
2023-02-16T08:49:02.244Z,4.28
2023-02-16T08:51:34.753Z,4.38
2023-02-16T08:54:06.045Z,4.43
2023-02-16T08:56:34.629Z,4.47
2023-02-16T08:59:02.850Z,4.49
2023-02-16T09:01:30.930Z,4.53
2023-02-16T09:03:59.112Z,4.60
2023-02-16T09:06:27.665Z,4.66
2023-02-16T09:08:57.325Z,4.67
2023-02-16T09:11:25.819Z,4.68
2023-02-16T09:13:55.059Z,4.73
2023-02-16T09:16:24.547Z,4.81
2023-02-16T09:18:53.226Z,4.89
2023-02-16T09:21:25.704Z,4.96
2023-02-16T09:23:56.501Z,5.03
2023-02-16T09:26:26.885Z,5.05
2023-02-16T09:28:55.310Z,5.06
2023-02-16T09:31:27.769Z,5.08
2023-02-16T09:34:28.464Z,5.13
2023-02-16T09:36:56.587Z,5.04
2023-02-16T09:39:24.561Z,5.05
2023-02-16T09:42:15.869Z,5.07
2023-02-16T09:44:55.952Z,5.11
2023-02-16T09:47:31.205Z,5.18
2023-02-16T09:50:02.265Z,5.29
2023-02-16T09:52:37.718Z,5.52
2023-02-16T09:55:14.580Z,5.60
2023-02-16T09:58:01.325Z,5.73
2023-02-16T10:00:33.017Z,5.85
2023-02-16T10:03:40.024Z,5.89
2023-02-16T10:06:17.494Z,5.96
2023-02-16T10:08:51.482Z,5.99
2023-02-16T10:11:46.067Z,6.10
2023-02-16T10:14:50.594Z,6.16
2023-02-16T10:17:31.613Z,6.23
2023-02-16T10:20:19.864Z,6.16
2023-02-16T10:23:12.358Z,6.20
2023-02-16T10:25:40.127Z,6.17
2023-02-16T10:28:17.640Z,6.17
2023-02-16T10:31:00.932Z,6.22
2023-02-16T10:33:53.668Z,6.30
2023-02-16T10:36:27.647Z,6.55
2023-02-16T10:39:05.068Z,6.59
2023-02-16T10:41:45.841Z,6.69
2023-02-16T10:44:21.807Z,6.73
2023-02-16T10:46:59.948Z,6.76
2023-02-16T10:49:31.354Z,6.74
2023-02-16T10:52:03.501Z,6.76
2023-02-16T10:54:33.224Z,6.81
2023-02-16T10:57:06.100Z,6.84
2023-02-16T10:59:38.984Z,6.83
2023-02-16T11:04:41.505Z,6.89
2023-02-16T11:07:14.309Z,6.93
2023-02-16T11:09:44.055Z,6.88
2023-02-16T11:12:22.957Z,6.94
2023-02-16T11:14:54.136Z,7.08
2023-02-16T11:17:23.989Z,7.13
2023-02-16T11:19:56.551Z,7.20
2023-02-16T11:22:31.351Z,7.26
2023-02-16T11:25:17.911Z,7.35
2023-02-16T11:27:57.283Z,7.36
2023-02-16T11:30:37.396Z,7.39
2023-02-16T11:33:23.972Z,7.23
2023-02-16T11:35:52.522Z,7.24
2023-02-16T11:38:31.822Z,7.27
2023-02-16T11:41:02.494Z,7.35
2023-02-16T11:43:35.278Z,7.44
2023-02-16T11:46:22.974Z,7.59
2023-02-16T11:48:51.266Z,7.74
2023-02-16T11:51:34.529Z,7.77
2023-02-16T11:54:07.749Z,7.81
2023-02-16T11:56:35.839Z,7.83
2023-02-16T11:59:17.132Z,7.89
2023-02-16T12:02:00.587Z,7.86
2023-02-16T12:04:46.684Z,7.91
2023-02-16T12:07:36.684Z,7.95
2023-02-16T12:10:30.978Z,8.06
2023-02-16T12:13:10.902Z,8.19
2023-02-16T12:16:00.020Z,8.25
2023-02-16T12:18:42.468Z,8.31
2023-02-16T12:21:10.331Z,8.38
2023-02-16T12:24:18.377Z,8.43
2023-02-16T12:27:02.088Z,8.50
2023-02-16T12:29:53.844Z,8.62
2023-02-16T12:32:31.171Z,8.72
2023-02-16T12:35:36.648Z,8.74
2023-02-16T12:38:29.622Z,8.78
2023-02-16T12:41:16.141Z,8.68
2023-02-16T12:43:51.621Z,8.54
2023-02-16T12:46:24.049Z,8.52
2023-02-16T12:49:01.179Z,8.53
2023-02-16T12:51:36.301Z,8.53
2023-02-16T12:54:11.166Z,8.61
2023-02-16T12:56:45.843Z,8.58
2023-02-16T12:59:22.408Z,8.54
2023-02-16T13:01:54.962Z,8.50
2023-02-16T13:04:44.177Z,8.45
2023-02-16T13:07:23.392Z,8.45
2023-02-16T13:10:07.028Z,8.48
2023-02-16T13:12:58.137Z,8.40
2023-02-16T13:15:37.100Z,8.31
2023-02-16T13:18:20.327Z,8.27
2023-02-16T13:20:54.069Z,8.19
2023-02-16T13:23:27.703Z,8.20
2023-02-16T13:26:28.403Z,8.17
2023-02-16T13:29:23.185Z,8.01
2023-02-16T13:32:06.260Z,7.85
2023-02-16T13:34:38.334Z,7.75
2023-02-16T13:37:51.928Z,7.74
2023-02-16T13:40:36.716Z,7.76
2023-02-16T13:43:16.862Z,7.72
2023-02-16T13:45:47.567Z,7.64
2023-02-16T13:48:23.748Z,7.62
2023-02-16T13:51:15.475Z,7.58
2023-02-16T13:53:52.785Z,7.51
2023-02-16T13:56:29.722Z,7.50
2023-02-16T13:59:21.155Z,7.44
2023-02-16T14:01:50.966Z,7.34
2023-02-16T14:04:22.224Z,7.27
2023-02-16T14:07:13.399Z,7.21
2023-02-16T14:09:41.380Z,7.16
2023-02-16T14:12:09.468Z,7.13
2023-02-16T14:14:43.144Z,7.09
2023-02-16T14:17:25.111Z,7.00
2023-02-16T14:20:05.295Z,6.97
2023-02-16T14:22:57.477Z,6.93
2023-02-16T14:25:32.232Z,6.89
2023-02-16T14:28:21.548Z,6.86
2023-02-16T14:30:56.952Z,6.82
2023-02-16T14:33:43.700Z,6.74
2023-02-16T14:36:17.206Z,6.69
2023-02-16T14:38:49.950Z,6.66
2023-02-16T14:41:24.142Z,6.62
2023-02-16T14:44:25.854Z,6.56
2023-02-16T14:46:59.515Z,6.50
2023-02-16T14:49:51.901Z,6.45
2023-02-16T14:52:27.052Z,6.38
2023-02-16T14:55:40.189Z,6.31
2023-02-16T14:58:27.774Z,6.23
2023-02-16T15:01:16.412Z,6.15
2023-02-16T15:03:54.881Z,6.06
2023-02-16T15:06:31.601Z,5.99
2023-02-16T15:09:13.485Z,5.89
2023-02-16T15:12:08.989Z,5.80
2023-02-16T15:14:43.111Z,5.71
2023-02-16T15:17:36.497Z,5.63
2023-02-16T15:20:19.937Z,5.52
2023-02-16T15:22:54.406Z,5.45
2023-02-16T15:25:39.747Z,5.37
2023-02-16T15:28:10.821Z,5.28
2023-02-16T15:30:59.114Z,5.22
2023-02-16T15:33:33.701Z,5.12
2023-02-16T15:36:08.958Z,5.03
2023-02-16T15:38:39.746Z,4.95
2023-02-16T15:41:13.274Z,4.87
2023-02-16T15:43:50.357Z,4.79
2023-02-16T15:46:29.084Z,4.73
2023-02-16T15:48:57.441Z,4.65
2023-02-16T15:51:34.934Z,4.56
2023-02-16T15:54:07.478Z,4.47
2023-02-16T15:56:50.481Z,4.36
2023-02-16T15:59:35.376Z,4.25
2023-02-16T16:02:07.034Z,4.15
2023-02-16T16:04:38.909Z,4.04
2023-02-16T16:07:12.125Z,3.91
2023-02-16T16:09:42.186Z,3.75
2023-02-16T16:12:13.789Z,3.59
2023-02-16T16:14:56.994Z,3.44
2023-02-16T16:17:28.224Z,3.23
2023-02-16T16:19:58.288Z,3.07
2023-02-16T16:22:35.084Z,2.91
2023-02-16T16:25:42.222Z,2.69
2023-02-16T16:28:28.516Z,2.55
2023-02-16T16:31:31.256Z,2.41
2023-02-16T16:34:08.889Z,2.32
2023-02-16T16:36:47.038Z,2.24
2023-02-16T16:39:17.851Z,2.19
2023-02-16T16:42:06.586Z,2.15
2023-02-16T16:44:37.721Z,2.07
2023-02-16T16:47:26.734Z,2.06
2023-02-16T16:49:58.995Z,2.04
2023-02-16T16:52:45.057Z,2.00
2023-02-16T16:55:27.064Z,1.91
2023-02-16T16:58:01.336Z,1.79
2023-02-16T17:00:34.479Z,1.67
2023-02-16T17:03:04.889Z,1.55
2023-02-16T17:05:34.575Z,1.40
2023-02-16T17:08:04.180Z,1.23
2023-02-16T17:10:32.625Z,1.12
2023-02-16T17:13:01.024Z,1.00
2023-02-16T17:15:43.306Z,0.88
2023-02-16T17:18:21.141Z,0.68
2023-02-16T17:20:50.466Z,0.52
2023-02-16T17:23:20.316Z,0.46
2023-02-16T17:25:52.097Z,0.41
2023-02-16T17:28:21.306Z,0.37
2023-02-16T17:30:49.319Z,0.33
2023-02-16T17:33:17.238Z,0.33
2023-02-16T17:35:45.285Z,0.40
2023-02-16T17:38:18.906Z,0.43
2023-02-16T17:40:49.289Z,0.52
2023-02-16T17:43:18.815Z,0.65
2023-02-16T17:45:47.441Z,0.79
2023-02-16T17:48:30.305Z,0.88
2023-02-16T17:50:58.394Z,0.97
2023-02-16T17:53:27.558Z,1.09
2023-02-16T17:55:57.869Z,1.20
2023-02-16T17:58:26.172Z,1.25
2023-02-16T18:00:54.366Z,1.29
2023-02-16T18:03:23.161Z,1.34
2023-02-16T18:05:51.699Z,1.36
2023-02-16T18:08:20.189Z,1.45
2023-02-16T18:10:51.553Z,1.51
2023-02-16T18:13:20.467Z,1.57
2023-02-16T18:15:49.809Z,1.60
2023-02-16T18:18:19.107Z,1.67
2023-02-16T18:20:47.524Z,1.76
2023-02-16T18:23:15.989Z,1.81
2023-02-16T18:25:44.318Z,1.85
2023-02-16T18:28:20.083Z,1.89
2023-02-16T18:30:49.386Z,1.96
2023-02-16T18:33:22.200Z,2.01
2023-02-16T18:35:57.589Z,2.06
2023-02-16T18:38:25.836Z,2.17
2023-02-16T18:40:54.955Z,2.25
2023-02-16T18:43:23.881Z,2.29
2023-02-16T18:45:52.107Z,2.34
2023-02-16T18:48:21.890Z,2.37
2023-02-16T18:50:49.986Z,2.42
2023-02-16T18:53:17.967Z,2.44
2023-02-16T18:55:46.137Z,2.47
2023-02-16T18:58:15.043Z,2.50
2023-02-16T19:04:36.634Z,2.61
2023-02-16T19:07:04.991Z,2.62
2023-02-16T19:09:33.276Z,2.62
2023-02-16T19:12:01.260Z,2.63
2023-02-16T19:14:29.291Z,2.64
2023-02-16T19:16:57.418Z,2.67
2023-02-16T19:19:25.521Z,2.70
2023-02-16T19:21:54.355Z,2.69
2023-02-16T19:24:22.883Z,2.71
2023-02-16T19:26:50.968Z,2.73
2023-02-16T19:29:18.921Z,2.74
2023-02-16T19:31:47.973Z,2.73
2023-02-16T19:34:17.069Z,2.69
2023-02-16T19:36:45.428Z,2.67
2023-02-16T19:39:13.724Z,2.66
2023-02-16T19:41:46.271Z,2.65
2023-02-16T19:44:14.880Z,2.63
2023-02-16T19:46:43.332Z,2.63
2023-02-16T19:49:14.487Z,2.61
2023-02-16T19:51:42.946Z,2.56
2023-02-16T19:54:11.020Z,2.55
2023-02-16T19:56:40.608Z,2.52
2023-02-16T19:59:08.992Z,2.46
2023-02-16T20:01:37.004Z,2.42
2023-02-16T20:04:05.462Z,2.39
2023-02-16T20:06:40.470Z,2.35
2023-02-16T20:09:12.435Z,2.32
2023-02-16T20:11:41.388Z,2.30
2023-02-16T20:14:11.342Z,2.32
2023-02-16T20:16:40.719Z,2.31
2023-02-16T20:19:08.851Z,2.28
2023-02-16T20:21:37.069Z,2.26
2023-02-16T20:24:06.917Z,2.23
2023-02-16T20:26:41.368Z,2.22
2023-02-16T20:29:11.586Z,2.22
2023-02-16T20:31:43.687Z,2.21
2023-02-16T20:34:11.840Z,2.21
2023-02-16T20:36:39.933Z,2.21
2023-02-16T20:39:08.452Z,2.19
2023-02-16T20:41:37.100Z,2.19
2023-02-16T20:44:07.339Z,2.20
2023-02-16T20:46:35.713Z,2.19
2023-02-16T20:49:04.852Z,2.19
2023-02-16T20:51:33.144Z,2.19
2023-02-16T20:54:03.874Z,2.22
2023-02-16T20:56:32.249Z,2.20
2023-02-16T20:59:01.495Z,2.22
2023-02-16T21:01:33.744Z,2.21
2023-02-16T21:04:01.799Z,2.20
2023-02-16T21:06:30.274Z,2.18
2023-02-16T21:08:58.457Z,2.18
2023-02-16T21:11:27.297Z,2.19
2023-02-16T21:13:58.002Z,2.19
2023-02-16T21:16:26.308Z,2.19
2023-02-16T21:18:54.669Z,2.18
2023-02-16T21:21:23.548Z,2.15
2023-02-16T21:23:54.034Z,2.12
2023-02-16T21:26:24.826Z,2.12
2023-02-16T21:28:53.432Z,2.08
2023-02-16T21:31:24.380Z,2.06
2023-02-16T21:33:54.439Z,2.06
2023-02-16T21:36:25.041Z,2.05
2023-02-16T21:38:53.869Z,2.05
2023-02-16T21:41:24.679Z,2.03
2023-02-16T21:43:55.931Z,2.03
2023-02-16T21:46:25.409Z,2.05
2023-02-16T21:48:55.251Z,2.06
2023-02-16T21:51:29.676Z,2.06
2023-02-16T21:53:58.819Z,2.07
2023-02-16T21:56:50.386Z,2.10
2023-02-16T21:59:19.970Z,2.12
2023-02-16T22:01:54.367Z,2.16
2023-02-16T22:04:23.052Z,2.19
2023-02-16T22:06:51.785Z,2.18
2023-02-16T22:09:22.634Z,2.18
2023-02-16T22:11:51.529Z,2.19
2023-02-16T22:14:20.206Z,2.19
2023-02-16T22:16:48.828Z,2.19
2023-02-16T22:19:18.507Z,2.23
2023-02-16T22:21:48.046Z,2.25
2023-02-16T22:24:18.540Z,2.25
2023-02-16T22:26:48.537Z,2.25
2023-02-16T22:29:17.217Z,2.26
2023-02-16T22:31:47.591Z,2.27
2023-02-16T22:34:19.654Z,2.30
2023-02-16T22:36:48.010Z,2.31
2023-02-16T22:39:17.342Z,2.33
2023-02-16T22:41:45.375Z,2.35
2023-02-16T22:44:15.061Z,2.35
2023-02-16T22:46:43.516Z,2.36
2023-02-16T22:49:11.713Z,2.39
2023-02-16T22:51:40.261Z,2.41
2023-02-16T22:54:08.654Z,2.44
2023-02-16T22:56:36.652Z,2.46
2023-02-16T22:59:04.671Z,2.47
2023-02-16T23:01:33.062Z,2.50
2023-02-16T23:04:01.920Z,2.51
2023-02-16T23:06:34.240Z,2.51
2023-02-16T23:09:06.046Z,2.54
2023-02-16T23:11:35.184Z,2.56
2023-02-16T23:14:05.196Z,2.59
2023-02-16T23:16:33.355Z,2.61
2023-02-16T23:19:01.321Z,2.64
2023-02-16T23:21:33.156Z,2.67
2023-02-16T23:24:01.262Z,2.69
2023-02-16T23:26:31.123Z,2.70
2023-02-16T23:29:02.207Z,2.71
2023-02-16T23:31:38.814Z,2.73
2023-02-16T23:34:07.569Z,2.74
2023-02-16T23:36:37.329Z,2.77
2023-02-16T23:39:15.236Z,2.79
2023-02-16T23:41:43.549Z,2.82
2023-02-16T23:44:13.790Z,2.84
2023-02-16T23:46:41.921Z,2.85
2023-02-16T23:49:10.197Z,2.86
2023-02-16T23:51:38.224Z,2.86
2023-02-16T23:54:06.669Z,2.87
2023-02-16T23:56:35.448Z,2.87
2023-02-16T23:59:03.513Z,2.90
